Terminal Aerodrome Forecast
Issued by NWS

Home | Current Version | Previous Version | Text Only | Print | Product List | Glossary On
Versions: 1 2 3 4 5 6 7 8 9 10 11 12 13 14
000
FTUS41 KBTV 020521
TAFMSS
TAF
KMSS 020521Z 0206/0306 22006KT P6SM SKC
     FM021000 14008KT P6SM BKN080 OVC120
     FM021600 21012KT P6SM SCT080
     FM021900 22012G25KT P6SM SCT100
     FM030200 22015G30KT P6SM VCSH OVC050=

USA.gov is the U.S. government's official web portal to all federal, state and local government web resources and services.